Time,TemperatureF,DewpointF,PressureIn,WindDirection,WindDirectionDegrees,WindSpeedMPH,WindSpeedGustMPH,Humidity,HourlyPrecipIn,Conditions,Clouds,dailyrainin,SoftwareType,DateUTC
2013-06-20 00:09:00,75.9,72.0,30.05,ESE,107,0.0,0.0,88,0.00,,,0.00,weatherlink.com 1.10,2013-06-20 04:09:00,
2013-06-20 00:24:00,75.7,72.0,30.05,ESE,110,1.0,3.0,89,0.00,,,0.00,weatherlink.com 1.10,2013-06-20 04:24:00,
2013-06-20 00:39:00,75.4,72.0,30.05,SE,139,1.0,2.0,89,0.00,,,0.00,weatherlink.com 1.10,2013-06-20 04:39:00,
2013-06-20 00:54:00,75.1,72.0,30.06,SE,134,0.0,2.0,90,0.00,,,0.00,weatherlink.com 1.10,2013-06-20 04:54:00,
2013-06-20 01:09:00,74.7,72.0,30.06,SSE,163,0.0,2.0,91,0.00,,,0.00,weatherlink.com 1.10,2013-06-20 05:09:00,
2013-06-20 01:24:00,74.5,72.0,30.06,SSE,154,0.0,1.0,92,0.00,,,0.00,weatherlink.com 1.10,2013-06-20 05:24:00,
2013-06-20 01:39:00,74.1,72.0,30.05,SSE,153,0.0,1.0,92,0.00,,,0.00,weatherlink.com 1.10,2013-06-20 05:39:00,
2013-06-20 01:54:00,74.0,72.0,30.05,SSE,153,0.0,0.0,93,0.00,,,0.00,weatherlink.com 1.10,2013-06-20 05:54:00,
2013-06-20 02:09:00,74.0,72.0,30.05,SSE,165,0.0,0.0,94,0.00,,,0.00,weatherlink.com 1.10,2013-06-20 06:09:00,
2013-06-20 02:24:00,74.6,73.0,30.04,WSW,238,0.0,0.0,93,0.00,,,0.00,weatherlink.com 1.10,2013-06-20 06:24:00,
2013-06-20 02:39:00,74.8,72.0,30.03,East,99,0.0,0.0,92,0.00,,,0.00,weatherlink.com 1.10,2013-06-20 06:39:00,
2013-06-20 02:54:00,74.6,73.0,30.03,ESE,103,0.0,2.0,93,0.00,,,0.00,weatherlink.com 1.10,2013-06-20 06:54:00,
2013-06-20 03:09:00,74.2,72.0,30.03,SE,145,0.0,2.0,94,0.00,,,0.00,weatherlink.com 1.10,2013-06-20 07:09:00,
2013-06-20 03:25:00,74.0,72.0,30.03,SE,138,0.0,0.0,94,0.00,,,0.00,weatherlink.com 1.10,2013-06-20 07:25:00,
2013-06-20 03:39:00,73.9,72.0,30.02,SE,141,0.0,0.0,95,0.00,,,0.00,weatherlink.com 1.10,2013-06-20 07:39:00,
2013-06-20 03:54:00,73.9,72.0,30.02,SE,129,0.0,0.0,95,0.00,,,0.00,weatherlink.com 1.10,2013-06-20 07:54:00,
2013-06-20 04:09:00,73.7,72.0,30.02,SE,136,0.0,0.0,95,0.00,,,0.00,weatherlink.com 1.10,2013-06-20 08:09:00,
2013-06-20 04:24:00,73.6,72.0,30.01,SE,129,0.0,0.0,95,0.00,,,0.00,weatherlink.com 1.10,2013-06-20 08:24:00,
2013-06-20 04:39:00,73.4,72.0,30.01,SSW,197,0.0,0.0,95,0.00,,,0.00,weatherlink.com 1.10,2013-06-20 08:39:00,
2013-06-20 04:54:00,73.3,72.0,30.02,SSW,198,0.0,0.0,95,0.00,,,0.00,weatherlink.com 1.10,2013-06-20 08:54:00,
2013-06-20 05:09:00,73.1,72.0,30.01,SSW,195,0.0,0.0,95,0.00,,,0.00,weatherlink.com 1.10,2013-06-20 09:09:00,
2013-06-20 05:25:00,72.9,71.0,30.01,SSW,195,0.0,0.0,95,0.00,,,0.00,weatherlink.com 1.10,2013-06-20 09:25:00,
2013-06-20 05:40:00,73.1,72.0,30.02,SSW,195,0.0,0.0,95,0.00,,,0.00,weatherlink.com 1.10,2013-06-20 09:40:00,
2013-06-20 05:55:00,73.1,72.0,30.02,SE,131,0.0,0.0,95,0.00,,,0.00,weatherlink.com 1.10,2013-06-20 09:55:00,
2013-06-20 06:10:00,73.2,72.0,30.02,SE,129,0.0,0.0,95,0.00,,,0.00,weatherlink.com 1.10,2013-06-20 10:10:00,
2013-06-20 06:25:00,73.2,72.0,30.02,SE,129,0.0,0.0,95,0.00,,,0.00,weatherlink.com 1.10,2013-06-20 10:25:00,
2013-06-20 06:40:00,72.8,71.0,30.03,SE,129,0.0,0.0,95,0.00,,,0.00,weatherlink.com 1.10,2013-06-20 10:40:00,
2013-06-20 06:55:00,72.8,72.0,30.03,SE,128,0.0,0.0,96,0.00,,,0.00,weatherlink.com 1.10,2013-06-20 10:55:00,
2013-06-20 07:10:00,73.5,72.0,30.04,SE,128,0.0,0.0,95,0.00,,,0.00,weatherlink.com 1.10,2013-06-20 11:10:00,
2013-06-20 07:25:00,74.1,72.0,30.05,SE,128,0.0,0.0,94,0.00,,,0.00,weatherlink.com 1.10,2013-06-20 11:25:00,
2013-06-20 07:40:00,75.2,73.0,30.05,SE,128,0.0,0.0,92,0.00,,,0.00,weatherlink.com 1.10,2013-06-20 11:40:00,
2013-06-20 07:55:00,77.0,74.0,30.06,ESE,110,0.0,0.0,89,0.00,,,0.00,weatherlink.com 1.10,2013-06-20 11:55:00,
2013-06-20 08:10:00,78.8,74.0,30.06,ESE,113,0.0,0.0,86,0.00,,,0.00,weatherlink.com 1.10,2013-06-20 12:10:00,
2013-06-20 08:25:00,80.4,75.0,30.06,ESE,117,0.0,0.0,83,0.00,,,0.00,weatherlink.com 1.10,2013-06-20 12:25:00,
2013-06-20 08:40:00,82.6,75.0,30.07,ESE,116,0.0,0.0,77,0.00,,,0.00,weatherlink.com 1.10,2013-06-20 12:40:00,
2013-06-20 08:55:00,82.9,75.0,30.07,East,98,0.0,0.0,77,0.00,,,0.00,weatherlink.com 1.10,2013-06-20 12:55:00,
2013-06-20 09:11:00,84.9,74.0,30.07,SE,132,0.0,3.0,70,0.00,,,0.00,weatherlink.com 1.10,2013-06-20 13:11:00,
2013-06-20 09:25:00,85.8,74.0,30.07,SSW,211,3.0,4.0,68,0.00,,,0.00,weatherlink.com 1.10,2013-06-20 13:25:00,
2013-06-20 09:40:00,85.5,74.0,30.08,SE,132,4.0,6.0,69,0.00,,,0.00,weatherlink.com 1.10,2013-06-20 13:40:00,
2013-06-20 09:55:00,86.8,76.0,30.08,ENE,73,0.0,3.0,71,0.00,,,0.00,weatherlink.com 1.10,2013-06-20 13:55:00,
2013-06-20 10:10:00,87.9,76.0,30.08,SSW,212,3.0,6.0,67,0.00,,,0.00,weatherlink.com 1.10,2013-06-20 14:10:00,
2013-06-20 10:25:00,88.1,75.0,30.08,East,101,3.0,4.0,65,0.00,,,0.00,weatherlink.com 1.10,2013-06-20 14:25:00,
2013-06-20 10:40:00,88.6,75.0,30.07,South,188,0.0,5.0,64,0.00,,,0.00,weatherlink.com 1.10,2013-06-20 14:40:00,
2013-06-20 10:55:00,88.2,76.0,30.08,South,188,2.0,6.0,67,0.00,,,0.00,weatherlink.com 1.10,2013-06-20 14:55:00,
2013-06-20 11:10:00,89.3,76.0,30.08,SSE,165,2.0,4.0,64,0.00,,,0.00,weatherlink.com 1.10,2013-06-20 15:10:00,
2013-06-20 11:25:00,90.7,75.0,30.07,NNW,343,0.0,3.0,61,0.00,,,0.00,weatherlink.com 1.10,2013-06-20 15:25:00,
2013-06-20 11:40:00,89.2,73.0,30.07,NW,309,4.0,4.0,60,0.00,,,0.00,weatherlink.com 1.10,2013-06-20 15:40:00,
2013-06-20 11:55:00,90.6,75.0,30.07,WNW,283,0.0,2.0,61,0.00,,,0.00,weatherlink.com 1.10,2013-06-20 15:55:00,
2013-06-20 12:10:00,89.3,74.0,30.08,NNE,15,1.0,4.0,61,0.00,,,0.00,weatherlink.com 1.10,2013-06-20 16:10:00,
2013-06-20 12:25:00,90.7,74.0,30.07,SE,139,2.0,6.0,59,0.00,,,0.00,weatherlink.com 1.10,2013-06-20 16:25:00,
2013-06-20 12:41:00,89.8,75.0,30.07,NW,313,3.0,5.0,62,0.00,,,0.00,weatherlink.com 1.10,2013-06-20 16:41:00,
2013-06-20 12:56:00,90.9,75.0,30.07,NNW,332,0.0,9.0,60,0.00,,,0.00,weatherlink.com 1.10,2013-06-20 16:56:00,
2013-06-20 13:11:00,90.0,74.0,30.06,West,271,0.0,6.0,60,0.00,,,0.00,weatherlink.com 1.10,2013-06-20 17:11:00,
2013-06-20 13:26:00,90.8,75.0,30.05,SE,143,2.0,5.0,60,0.00,,,0.00,weatherlink.com 1.10,2013-06-20 17:26:00,
2013-06-20 13:41:00,91.2,75.0,30.04,NNW,333,5.0,8.0,59,0.00,,,0.00,weatherlink.com 1.10,2013-06-20 17:41:00,
2013-06-20 13:57:00,90.7,75.0,30.04,NW,313,6.0,6.0,61,0.00,,,0.00,weatherlink.com 1.10,2013-06-20 17:57:00,
2013-06-20 14:11:00,88.2,76.0,30.05,WNW,295,4.0,12.0,67,0.00,,,0.00,weatherlink.com 1.10,2013-06-20 18:11:00,
2013-06-20 14:26:00,86.8,76.0,30.04,WNW,293,6.0,10.0,69,0.00,,,0.00,weatherlink.com 1.10,2013-06-20 18:26:00,
2013-06-20 14:56:00,86.1,74.0,30.03,WNW,302,5.0,10.0,67,0.00,,,0.00,weatherlink.com 1.10,2013-06-20 18:56:00,
2013-06-20 15:11:00,86.1,74.0,30.03,NE,35,5.0,9.0,67,0.00,,,0.00,weatherlink.com 1.10,2013-06-20 19:11:00,
2013-06-20 15:26:00,86.7,74.0,30.03,NNW,339,6.0,10.0,65,0.00,,,0.00,weatherlink.com 1.10,2013-06-20 19:26:00,
2013-06-20 15:41:00,87.3,74.0,30.02,NW,314,6.0,10.0,64,0.00,,,0.00,weatherlink.com 1.10,2013-06-20 19:41:00,
2013-06-20 15:56:00,87.5,74.0,30.01,NNW,329,3.0,9.0,64,0.00,,,0.00,weatherlink.com 1.10,2013-06-20 19:56:00,
2013-06-20 16:11:00,88.8,75.0,30.00,North,356,5.0,8.0,63,0.00,,,0.00,weatherlink.com 1.10,2013-06-20 20:11:00,
2013-06-20 16:26:00,90.4,74.0,29.99,West,267,4.0,9.0,59,0.00,,,0.00,weatherlink.com 1.10,2013-06-20 20:26:00,
2013-06-20 16:41:00,90.8,72.0,30.00,WNW,300,3.0,9.0,55,0.00,,,0.00,weatherlink.com 1.10,2013-06-20 20:41:00,
2013-06-20 16:56:00,91.5,71.0,30.02,ENE,58,3.0,7.0,52,0.00,,,0.00,weatherlink.com 1.10,2013-06-20 20:56:00,
2013-06-20 17:11:00,91.8,72.0,30.04,North,1,3.0,6.0,52,0.00,,,0.00,weatherlink.com 1.10,2013-06-20 21:11:00,
2013-06-20 17:26:00,82.9,72.0,30.04,SE,146,9.0,19.0,69,0.00,,,0.00,weatherlink.com 1.10,2013-06-20 21:26:00,
2013-06-20 17:41:00,83.0,70.0,30.04,SE,134,6.0,17.0,65,0.00,,,0.00,weatherlink.com 1.10,2013-06-20 21:41:00,
2013-06-20 17:56:00,84.1,70.0,30.04,SE,134,3.0,10.0,63,0.00,,,0.00,weatherlink.com 1.10,2013-06-20 21:56:00,
2013-06-20 18:11:00,82.8,70.0,30.03,SSE,167,4.0,9.0,65,0.00,,,0.00,weatherlink.com 1.10,2013-06-20 22:11:00,
2013-06-20 18:26:00,80.8,70.0,30.05,East,99,3.0,8.0,69,0.00,,,0.00,weatherlink.com 1.10,2013-06-20 22:26:00,
2013-06-20 18:41:00,80.1,68.0,30.07,NNW,338,0.0,5.0,67,0.00,,,0.00,weatherlink.com 1.10,2013-06-20 22:41:00,
2013-06-20 18:56:00,80.3,72.0,30.08,NW,326,2.0,7.0,75,0.00,,,0.00,weatherlink.com 1.10,2013-06-20 22:56:00,
2013-06-20 19:11:00,78.4,71.0,30.09,NW,311,0.0,5.0,79,0.00,,,0.00,weatherlink.com 1.10,2013-06-20 23:11:00,
2013-06-20 19:26:00,76.8,72.0,30.09,North,350,0.0,2.0,85,0.00,,,0.00,weatherlink.com 1.10,2013-06-20 23:26:00,
2013-06-20 19:41:00,76.0,72.0,30.09,ENE,58,0.0,1.0,86,0.00,,,0.00,weatherlink.com 1.10,2013-06-20 23:41:00,
2013-06-20 19:56:00,75.9,73.0,30.09,NNE,32,2.0,3.0,90,0.01,,,0.01,weatherlink.com 1.10,2013-06-20 23:56:00,
2013-06-20 20:11:00,75.5,72.0,30.09,WNW,284,0.0,4.0,89,0.01,,,0.01,weatherlink.com 1.10,2013-06-21 00:11:00,
2013-06-20 20:27:00,74.9,72.0,30.08,NE,39,3.0,4.0,89,0.01,,,0.01,weatherlink.com 1.10,2013-06-21 00:27:00,
2013-06-20 20:41:00,74.5,71.0,30.08,SE,128,0.0,0.0,88,0.01,,,0.01,weatherlink.com 1.10,2013-06-21 00:41:00,
2013-06-20 20:56:00,74.2,71.0,30.07,East,91,0.0,0.0,89,0.00,,,0.01,weatherlink.com 1.10,2013-06-21 00:56:00,
2013-06-20 21:11:00,74.0,71.0,30.07,SE,139,0.0,0.0,90,0.00,,,0.01,weatherlink.com 1.10,2013-06-21 01:11:00,
2013-06-20 21:26:00,73.9,72.0,30.07,SE,135,0.0,0.0,93,0.00,,,0.01,weatherlink.com 1.10,2013-06-21 01:26:00,
2013-06-20 21:41:00,73.6,72.0,30.07,ESE,109,0.0,0.0,94,0.00,,,0.01,weatherlink.com 1.10,2013-06-21 01:41:00,
2013-06-20 21:56:00,73.5,72.0,30.07,ESE,117,0.0,0.0,94,0.00,,,0.01,weatherlink.com 1.10,2013-06-21 01:56:00,
2013-06-20 22:11:00,73.4,72.0,30.07,SE,139,0.0,0.0,94,0.00,,,0.01,weatherlink.com 1.10,2013-06-21 02:11:00,
2013-06-20 22:26:00,73.3,71.0,30.07,SSW,203,0.0,0.0,93,0.00,,,0.01,weatherlink.com 1.10,2013-06-21 02:26:00,
2013-06-20 22:41:00,72.9,71.0,30.07,South,169,0.0,0.0,93,0.00,,,0.01,weatherlink.com 1.10,2013-06-21 02:41:00,
2013-06-20 22:56:00,72.9,71.0,30.07,SSW,199,0.0,0.0,93,0.00,,,0.01,weatherlink.com 1.10,2013-06-21 02:56:00,
2013-06-20 23:11:00,73.0,71.0,30.08,SE,138,0.0,0.0,93,0.00,,,0.01,weatherlink.com 1.10,2013-06-21 03:11:00,
2013-06-20 23:26:00,72.8,71.0,30.09,SE,139,0.0,0.0,93,0.00,,,0.01,weatherlink.com 1.10,2013-06-21 03:26:00,
2013-06-20 23:41:00,72.3,71.0,30.09,SE,138,0.0,0.0,94,0.00,,,0.01,weatherlink.com 1.10,2013-06-21 03:41:00,
2013-06-20 23:56:00,72.0,71.0,30.09,SE,138,0.0,0.0,95,0.00,,,0.01,weatherlink.com 1.10,2013-06-21 03:56:00,